Time;durP1;ratioP1;P1;durP2;ratioP2;P2;SDS_P1;SDS_P2;PMS_P1;PMS_P2;Temp;Humidity;BMP_temperature;BMP_pressure;BME280_temperature;BME280_humidity;BME280_pressure;Samples;Min_cycle;Max_cycle;Signal;HPM_P1;HPM_P2
2021/11/14 00:02:14;;;;;;;119.70;69.62;;;;;;;4.10;83.71;96729.27;1765330;81;20982;-82
2021/11/14 00:04:42;;;;;;;106.35;66.15;;;;;;;4.14;83.74;96721.62;1765340;81;20942;-82
2021/11/14 00:07:07;;;;;;;118.33;69.05;;;;;;;4.18;83.70;96721.69;1765110;81;20990;-82
2021/11/14 00:09:33;;;;;;;116.62;71.53;;;;;;;4.23;83.71;96720.83;1765425;81;21401;-82
2021/11/14 00:11:59;;;;;;;145.25;86.78;;;;;;;4.26;83.72;96717.17;1763054;81;20989;-82
2021/11/14 00:14:24;;;;;;;156.00;91.80;;;;;;;4.25;83.76;96720.70;1741952;81;21025;-81
2021/11/14 00:16:50;;;;;;;220.90;136.85;;;;;;;4.25;83.73;96718.94;1729319;83;21491;-82
2021/11/14 00:19:17;;;;;;;202.30;125.10;;;;;;;4.21;83.63;96723.98;1729125;83;21001;-82
2021/11/14 00:21:43;;;;;;;198.72;112.10;;;;;;;4.18;83.70;96714.78;1728843;83;21502;-82
2021/11/14 00:24:13;;;;;;;177.75;105.92;;;;;;;4.21;83.68;96718.84;1729063;83;21041;-82
2021/11/14 00:26:41;;;;;;;219.00;120.33;;;;;;;4.24;83.67;96722.93;1729083;83;21392;-82
2021/11/14 00:29:07;;;;;;;240.45;126.80;;;;;;;4.25;83.61;96721.50;1729196;83;21005;-81
2021/11/14 00:31:33;;;;;;;200.32;116.93;;;;;;;4.25;83.67;96725.84;1729105;83;21085;-82
2021/11/14 00:33:59;;;;;;;186.15;113.52;;;;;;;4.22;83.65;96727.70;1729034;83;20989;-82
2021/11/14 00:36:28;;;;;;;172.78;104.27;;;;;;;4.21;83.49;96720.94;1728912;83;20974;-82
2021/11/14 00:38:54;;;;;;;171.10;104.80;;;;;;;4.20;83.40;96725.74;1702515;83;20997;-82
2021/11/14 00:41:20;;;;;;;172.95;107.80;;;;;;;4.21;83.60;96727.84;1729084;83;20977;-80
2021/11/14 00:43:46;;;;;;;170.53;106.95;;;;;;;4.26;83.62;96727.47;1729113;83;21430;-82
2021/11/14 00:46:14;;;;;;;176.15;108.50;;;;;;;4.28;83.49;96727.66;1728999;83;21068;-82
2021/11/14 00:48:41;;;;;;;171.22;105.32;;;;;;;4.31;83.45;96726.58;1729023;83;21049;-82
2021/11/14 00:51:10;;;;;;;178.65;109.17;;;;;;;4.34;83.69;96730.16;1729042;83;21004;-82
2021/11/14 00:53:36;;;;;;;182.35;110.70;;;;;;;4.34;83.56;96729.69;1728111;83;21041;-82
2021/11/14 00:56:01;;;;;;;177.27;104.27;;;;;;;4.30;83.43;96728.34;1729106;83;21348;-81
2021/11/14 00:58:27;;;;;;;165.35;103.07;;;;;;;4.26;83.41;96728.27;1729314;83;20985;-82
2021/11/14 01:00:54;;;;;;;178.00;106.95;;;;;;;4.28;83.50;96725.09;1729051;83;21005;-82
2021/11/14 01:03:20;;;;;;;176.35;102.78;;;;;;;4.33;83.59;96724.20;1729110;83;21409;-82
2021/11/14 01:05:45;;;;;;;166.53;106.55;;;;;;;4.37;83.58;96729.89;1728939;83;21056;-82
2021/11/14 01:08:12;;;;;;;175.90;106.20;;;;;;;4.41;83.67;96729.51;1729145;83;21028;-82
2021/11/14 01:10:45;;;;;;;166.65;96.47;;;;;;;4.43;83.54;96733.23;1729101;83;21009;-82
2021/11/14 01:13:11;;;;;;;156.18;94.13;;;;;;;4.40;83.55;96730.45;1728986;83;21005;-82
2021/11/14 01:15:37;;;;;;;149.70;87.42;;;;;;;4.38;83.57;96727.18;1728880;83;21368;-82
2021/11/14 01:18:03;;;;;;;139.37;83.12;;;;;;;4.38;83.47;96725.08;1729149;83;21073;-82
2021/11/14 01:20:33;;;;;;;129.42;79.53;;;;;;;4.38;83.55;96730.23;1727927;83;20981;-82
2021/11/14 01:22:59;;;;;;;124.20;73.57;;;;;;;4.39;83.63;96726.26;1712492;84;21080;-82
2021/11/14 01:25:25;;;;;;;115.57;72.60;;;;;;;4.43;83.64;96733.23;1712560;84;21114;-82
2021/11/14 01:27:51;;;;;;;123.53;77.03;;;;;;;4.42;83.69;96725.17;1712500;83;21343;-82
2021/11/14 01:30:27;;;;;;;139.55;81.47;;;;;;;4.41;83.78;96723.55;1702083;84;21066;-82
2021/11/14 01:32:54;;;;;;;145.00;88.00;;;;;;;4.39;83.80;96726.26;1714001;84;21069;-82
2021/11/14 01:35:20;;;;;;;137.92;83.87;;;;;;;4.38;83.77;96729.75;1714415;83;21045;-82
2021/11/14 01:37:46;;;;;;;161.05;96.67;;;;;;;4.39;83.75;96727.98;1714448;83;21077;-82
2021/11/14 01:40:18;;;;;;;169.28;102.50;;;;;;;4.41;83.62;96732.08;1732865;80;20986;-82
2021/11/14 01:42:43;;;;;;;165.87;105.87;;;;;;;4.36;83.61;96737.27;1721793;82;21085;-82
2021/11/14 01:45:09;;;;;;;165.20;100.97;;;;;;;4.34;83.62;96737.88;1714492;83;21423;-82
2021/11/14 01:47:35;;;;;;;159.50;100.87;;;;;;;4.27;83.62;96740.19;1714302;84;20982;-82
2021/11/14 01:50:03;;;;;;;164.22;100.92;;;;;;;4.21;83.86;96738.94;1714365;84;21001;-82
2021/11/14 01:52:31;;;;;;;156.28;94.97;;;;;;;4.24;84.07;96736.61;1714040;84;21141;-82
2021/11/14 01:54:59;;;;;;;158.55;98.25;;;;;;;4.26;84.10;96735.18;1714250;84;21385;-82
2021/11/14 01:57:24;;;;;;;153.02;93.62;;;;;;;4.31;84.18;96740.73;1714333;84;21026;-82
2021/11/14 01:59:51;;;;;;;150.93;95.55;;;;;;;4.35;84.11;96740.31;1714333;84;20990;-82
2021/11/14 02:02:16;;;;;;;167.03;103.70;;;;;;;4.39;84.05;96733.98;1714520;83;21029;-82
2021/11/14 02:04:42;;;;;;;159.22;100.40;;;;;;;4.44;84.15;96734.85;1714272;84;21029;-82
2021/11/14 02:07:09;;;;;;;168.05;105.10;;;;;;;4.45;83.92;96733.91;1714467;84;20970;-82
2021/11/14 02:09:35;;;;;;;173.02;101.97;;;;;;;4.46;83.92;96738.10;1714266;83;21045;-82
2021/11/14 02:12:02;;;;;;;157.62;99.47;;;;;;;4.46;83.71;96730.38;1714404;83;21425;-82
2021/11/14 02:14:28;;;;;;;157.60;96.08;;;;;;;4.45;83.57;96732.62;1714269;84;21037;-82
2021/11/14 02:16:54;;;;;;;137.85;88.05;;;;;;;4.44;83.63;96738.71;1714424;84;21085;-82
2021/11/14 02:19:20;;;;;;;134.35;82.17;;;;;;;4.47;83.70;96737.15;1714406;83;21387;-82
2021/11/14 02:21:45;;;;;;;129.18;80.77;;;;;;;4.48;83.73;96732.34;1698270;83;21036;-82
2021/11/14 02:24:11;;;;;;;125.78;76.80;;;;;;;4.51;83.75;96733.35;1757464;82;21052;-82
2021/11/14 02:26:37;;;;;;;119.28;74.22;;;;;;;4.51;83.69;96735.92;1757424;82;21336;-82
2021/11/14 02:29:03;;;;;;;121.37;75.00;;;;;;;4.46;83.73;96726.52;1757372;82;21024;-81
2021/11/14 02:31:28;;;;;;;121.92;74.75;;;;;;;4.48;83.82;96733.16;1757499;81;21344;-81
2021/11/14 02:33:54;;;;;;;110.97;68.20;;;;;;;4.49;83.74;96733.97;1757411;82;20966;-82
2021/11/14 02:36:20;;;;;;;102.92;61.02;;;;;;;4.51;83.68;96734.64;1757280;82;20986;-82
2021/11/14 02:38:46;;;;;;;96.40;59.13;;;;;;;4.53;83.60;96741.75;1762862;79;20941;-82
2021/11/14 02:41:13;;;;;;;93.82;55.35;;;;;;;4.54;83.62;96733.08;1783663;80;21095;-82
2021/11/14 02:43:43;;;;;;;93.22;55.25;;;;;;;4.52;83.47;96740.94;1795021;80;20984;-82
2021/11/14 02:46:09;;;;;;;86.97;52.43;;;;;;;4.48;83.54;96734.44;1794830;80;20989;-80
2021/11/14 02:48:34;;;;;;;84.52;51.20;;;;;;;4.46;83.61;96735.05;1795082;80;21395;-81
2021/11/14 02:51:00;;;;;;;81.67;49.67;;;;;;;4.43;83.71;96736.61;1795240;80;21020;-82
2021/11/14 02:53:26;;;;;;;78.70;46.85;;;;;;;4.43;83.67;96734.52;1794894;80;21101;-82
2021/11/14 02:55:52;;;;;;;70.78;44.45;;;;;;;4.44;83.78;96736.95;1795029;80;21049;-82
2021/11/14 02:58:18;;;;;;;77.17;45.85;;;;;;;4.50;83.75;96738.16;1795106;80;21415;-82
2021/11/14 03:00:53;;;;;;;72.03;42.90;;;;;;;4.55;83.86;96741.13;1795166;80;21003;-82
2021/11/14 03:03:19;;;;;;;68.83;40.88;;;;;;;4.59;83.81;96741.22;1795059;80;21057;-82
2021/11/14 03:05:45;;;;;;;67.55;41.40;;;;;;;4.62;83.84;96740.95;1795251;80;20988;-82
2021/11/14 03:08:12;;;;;;;68.12;42.23;;;;;;;4.63;83.87;96742.57;1766232;80;20984;-82
2021/11/14 03:10:38;;;;;;;59.13;37.90;;;;;;;4.66;83.88;96739.72;1795103;80;20984;-82
2021/11/14 03:13:14;;;;;;;61.35;38.10;;;;;;;4.65;83.66;96745.81;1795140;80;20980;-82
2021/11/14 03:15:47;;;;;;;54.85;32.78;;;;;;;4.65;83.58;96748.39;1795113;80;20945;-82
2021/11/14 03:18:13;;;;;;;52.20;33.42;;;;;;;4.64;83.50;96742.91;1795069;80;21024;-82
2021/11/14 03:20:41;;;;;;;47.20;30.48;;;;;;;4.65;83.52;96747.10;1795377;80;20961;-82
2021/11/14 03:23:07;;;;;;;42.80;27.93;;;;;;;4.68;83.60;96751.97;1797735;80;21032;-82
2021/11/14 03:25:33;;;;;;;37.50;25.15;;;;;;;4.67;83.63;96745.67;1798163;80;20996;-82
2021/11/14 03:27:59;;;;;;;32.38;20.57;;;;;;;4.65;83.58;96754.02;1798193;80;20999;-82
2021/11/14 03:30:25;;;;;;;31.68;19.55;;;;;;;4.61;83.48;96758.62;1798354;80;21037;-82
2021/11/14 03:32:51;;;;;;;33.90;19.82;;;;;;;4.60;83.52;96757.00;1798251;80;21068;-82
2021/11/14 03:35:18;;;;;;;40.58;27.37;;;;;;;4.59;83.41;96757.95;1798202;80;21320;-82
2021/11/14 03:37:43;;;;;;;50.17;32.90;;;;;;;4.61;83.47;96759.10;1798245;80;21039;-82
2021/11/14 03:40:10;;;;;;;59.58;38.15;;;;;;;4.61;83.51;96761.20;1786054;78;20984;-82
2021/11/14 03:42:36;;;;;;;65.17;42.35;;;;;;;4.59;83.53;96762.28;1788673;80;21001;-81
2021/11/14 03:45:03;;;;;;;70.95;43.02;;;;;;;4.59;83.69;96761.81;1798221;80;21430;-82
2021/11/14 03:47:29;;;;;;;73.92;45.50;;;;;;;4.60;83.83;96769.87;1798368;80;21000;-82
2021/11/14 03:49:55;;;;;;;78.67;47.88;;;;;;;4.60;83.82;96767.30;1798484;80;21339;-82
2021/11/14 03:52:21;;;;;;;78.65;47.60;;;;;;;4.62;83.70;96773.12;1798437;80;21351;-82
2021/11/14 03:54:46;;;;;;;74.65;46.92;;;;;;;4.64;83.53;96776.37;1798314;80;21065;-82
2021/11/14 03:57:12;;;;;;;75.32;46.63;;;;;;;4.64;83.46;96775.08;1798431;80;20992;-82
2021/11/14 03:59:38;;;;;;;75.10;46.45;;;;;;;4.63;83.40;96773.45;1798261;80;21394;-82
2021/11/14 04:02:04;;;;;;;73.42;47.20;;;;;;;4.60;83.45;96771.16;1798259;80;21000;-81
2021/11/14 04:04:30;;;;;;;68.62;44.50;;;;;;;4.59;83.48;96773.39;1773859;80;20960;-82
2021/11/14 04:06:56;;;;;;;67.70;43.92;;;;;;;4.56;83.56;96778.00;1798046;80;21042;-82
2021/11/14 04:09:21;;;;;;;62.30;38.60;;;;;;;4.52;83.51;96783.87;1798416;80;21492;-82
2021/11/14 04:11:47;;;;;;;53.98;34.58;;;;;;;4.50;83.52;96780.14;1798338;80;20956;-82
2021/11/14 04:14:13;;;;;;;47.90;30.15;;;;;;;4.52;83.51;96777.44;1798236;80;21011;-82
2021/11/14 04:16:39;;;;;;;43.35;27.25;;;;;;;4.53;83.55;96782.92;1798374;80;20942;-82
2021/11/14 04:19:05;;;;;;;39.23;25.82;;;;;;;4.55;83.66;96790.03;1798430;80;21004;-82
2021/11/14 04:21:31;;;;;;;42.08;27.02;;;;;;;4.55;83.72;96791.31;1797764;80;21087;-82
2021/11/14 04:23:57;;;;;;;37.53;24.18;;;;;;;4.54;83.83;96784.55;1795268;80;21036;-82
2021/11/14 04:26:23;;;;;;;29.82;20.37;;;;;;;4.56;83.89;96785.25;1795377;80;21019;-82
2021/11/14 04:28:48;;;;;;;29.98;20.72;;;;;;;4.58;83.88;96787.21;1795140;80;20977;-81
2021/11/14 04:31:14;;;;;;;27.52;19.25;;;;;;;4.59;83.78;96786.27;1795143;80;21008;-81
2021/11/14 04:33:40;;;;;;;18.48;13.08;;;;;;;4.61;83.66;96786.94;1795252;80;21295;-82
2021/11/14 04:36:06;;;;;;;15.60;10.72;;;;;;;4.61;83.60;96781.79;1794943;80;20989;-82
2021/11/14 04:38:32;;;;;;;13.85;8.53;;;;;;;4.60;83.62;96783.22;1793670;78;21344;-82
2021/11/14 04:40:58;;;;;;;13.50;7.87;;;;;;;4.61;83.67;96795.95;1782430;80;20970;-82
2021/11/14 04:43:24;;;;;;;9.50;6.95;;;;;;;4.61;83.83;96794.66;1795025;80;20992;-81
2021/11/14 04:45:51;;;;;;;9.55;6.45;;;;;;;4.61;83.81;96796.42;1795418;80;21003;-82
2021/11/14 04:48:16;;;;;;;9.58;6.08;;;;;;;4.60;83.66;96799.47;1795220;80;20941;-82
2021/11/14 04:50:42;;;;;;;9.05;5.58;;;;;;;4.61;83.62;96802.38;1795233;80;21087;-82
2021/11/14 04:53:08;;;;;;;6.83;5.28;;;;;;;4.62;83.62;96803.19;1795107;80;21068;-81
2021/11/14 04:55:35;;;;;;;7.05;5.12;;;;;;;4.61;83.65;96807.53;1795028;80;20997;-82
2021/11/14 04:58:02;;;;;;;8.48;5.53;;;;;;;4.62;83.58;96805.77;1795583;80;21329;-82
2021/11/14 05:00:35;;;;;;;8.60;5.80;;;;;;;4.63;83.48;96803.05;1795171;80;20969;-82
2021/11/14 05:03:00;;;;;;;8.65;5.97;;;;;;;4.61;83.45;96810.58;1794611;80;21043;-82
2021/11/14 05:05:26;;;;;;;8.33;5.70;;;;;;;4.61;83.65;96810.58;1795185;80;21075;-82
2021/11/14 05:07:52;;;;;;;7.95;5.95;;;;;;;4.62;83.53;96811.73;1765200;80;21032;-82
2021/11/14 05:10:18;;;;;;;6.53;5.08;;;;;;;4.64;83.38;96814.98;1795181;80;21375;-82
2021/11/14 05:12:43;;;;;;;7.17;5.47;;;;;;;4.66;83.26;96818.70;1795289;80;21024;-82
2021/11/14 05:15:09;;;;;;;8.75;5.42;;;;;;;4.66;83.23;96819.98;1795459;80;20984;-82
2021/11/14 05:17:35;;;;;;;8.95;5.85;;;;;;;4.64;83.15;96821.41;1795092;80;20944;-82
2021/11/14 05:20:04;;;;;;;8.45;6.28;;;;;;;4.64;83.26;96826.56;1795240;80;20965;-82
2021/11/14 05:22:29;;;;;;;8.95;5.42;;;;;;;4.62;83.26;96825.88;1793999;80;21076;-82
2021/11/14 05:24:55;;;;;;;8.48;5.62;;;;;;;4.61;83.11;96822.97;1795068;80;21084;-82
2021/11/14 05:27:21;;;;;;;7.58;5.67;;;;;;;4.63;83.04;96826.70;1795108;80;21545;-82
2021/11/14 05:29:47;;;;;;;7.55;5.80;;;;;;;4.65;82.92;96828.66;1795022;80;21013;-82
2021/11/14 05:32:12;;;;;;;8.55;5.55;;;;;;;4.69;82.97;96833.39;1795234;80;21068;-82
2021/11/14 05:34:38;;;;;;;7.72;5.37;;;;;;;4.69;82.85;96830.82;1795114;80;21022;-82
2021/11/14 05:37:04;;;;;;;7.03;5.33;;;;;;;4.66;82.91;96832.86;1795148;80;20937;-82
2021/11/14 05:39:30;;;;;;;6.58;5.50;;;;;;;4.64;82.97;96830.42;1794965;80;21030;-82
2021/11/14 05:41:56;;;;;;;7.28;5.20;;;;;;;4.62;83.05;96833.60;1765057;80;20958;-82
2021/11/14 05:44:22;;;;;;;6.70;5.05;;;;;;;4.59;83.00;96838.21;1794803;80;21005;-81
2021/11/14 05:46:48;;;;;;;8.38;5.33;;;;;;;4.58;82.88;96844.30;1795209;80;21386;-82
2021/11/14 05:49:14;;;;;;;6.10;4.37;;;;;;;4.58;82.75;96847.69;1795092;80;20968;-82
2021/11/14 05:51:40;;;;;;;7.05;5.22;;;;;;;4.58;82.94;96847.69;1795156;80;20997;-82
2021/11/14 05:54:06;;;;;;;5.47;4.95;;;;;;;4.58;82.96;96848.98;1795047;80;21024;-82
2021/11/14 05:56:32;;;;;;;7.03;5.42;;;;;;;4.57;83.01;96853.79;1795065;80;20980;-82
2021/11/14 06:04:18;;;;;;;7.15;5.47;;;;;;;4.56;82.95;96868.08;1770335;80;21360;-82
2021/11/14 06:06:35;;;;;;;35.50;22.60;;;;;;;4.57;82.98;96874.38;1755213;82;20993;-82
2021/11/14 06:09:00;;;;;;;37.42;25.15;;;;;;;4.61;82.89;96873.63;1757501;82;21430;-82
2021/11/14 06:11:26;;;;;;;43.00;29.05;;;;;;;4.66;83.08;96877.91;1757434;82;20998;-82
2021/11/14 06:13:53;;;;;;;72.00;45.45;;;;;;;4.71;83.14;96877.02;1757401;82;20969;-82
2021/11/14 06:16:20;;;;;;;77.80;51.63;;;;;;;4.72;83.25;96883.35;1757306;82;20985;-82
2021/11/14 06:18:46;;;;;;;86.55;54.98;;;;;;;4.69;83.16;96886.17;1757344;81;20962;-82
2021/11/14 06:21:11;;;;;;;90.20;54.40;;;;;;;4.68;83.27;96889.69;1757502;82;21043;-81
2021/11/14 06:23:37;;;;;;;86.22;53.68;;;;;;;4.74;83.61;96894.33;1757101;82;21103;-82
2021/11/14 06:26:03;;;;;;;85.12;54.38;;;;;;;4.78;83.25;96902.12;1757460;82;21080;-82
2021/11/14 06:28:28;;;;;;;92.88;60.10;;;;;;;4.81;83.14;96908.28;1757251;82;21120;-82
2021/11/14 06:30:54;;;;;;;104.97;63.42;;;;;;;4.81;83.12;96908.28;1757410;82;21045;-81
2021/11/14 06:33:20;;;;;;;110.90;69.75;;;;;;;4.83;83.32;96908.15;1757268;82;21064;-82
2021/11/14 06:35:46;;;;;;;107.83;67.10;;;;;;;4.87;83.26;96917.22;1757527;82;21045;-82
2021/11/14 06:38:11;;;;;;;105.95;68.55;;;;;;;4.86;83.28;96916.89;1757587;81;21404;-82
2021/11/14 06:40:37;;;;;;;109.75;69.42;;;;;;;4.89;83.32;96920.98;1757280;82;21109;-82
2021/11/14 06:43:03;;;;;;;102.30;65.08;;;;;;;4.91;82.97;96921.66;1757619;82;21085;-82
2021/11/14 06:45:30;;;;;;;103.58;64.72;;;;;;;4.91;83.03;96922.47;1756974;82;21045;-82
2021/11/14 06:47:56;;;;;;;105.72;65.97;;;;;;;4.93;82.87;96923.63;1729903;82;21309;-82
2021/11/14 06:50:21;;;;;;;94.50;60.78;;;;;;;4.95;83.03;96928.98;1757353;82;20993;-82
2021/11/14 06:52:47;;;;;;;96.35;58.90;;;;;;;5.02;82.99;96934.40;1757553;82;21001;-81
2021/11/14 06:55:14;;;;;;;89.87;56.05;;;;;;;5.03;82.89;96933.45;1729793;82;21005;-82
2021/11/14 06:57:40;;;;;;;88.25;55.83;;;;;;;5.03;82.78;96937.31;1757380;81;21029;-82
2021/11/14 07:00:10;;;;;;;94.37;56.15;;;;;;;5.04;82.79;96940.22;1758254;79;21345;-82
2021/11/14 07:02:36;;;;;;;88.90;52.85;;;;;;;5.05;82.72;96944.45;1780768;80;21025;-82
2021/11/14 07:05:01;;;;;;;81.50;49.63;;;;;;;5.07;82.45;96942.56;1795148;80;21052;-82
2021/11/14 07:07:27;;;;;;;85.17;53.95;;;;;;;5.10;82.47;96941.81;1765207;80;21280;-82
2021/11/14 07:09:53;;;;;;;81.10;50.83;;;;;;;5.11;82.44;96942.63;1794932;80;21041;-82
2021/11/14 07:12:20;;;;;;;84.20;53.15;;;;;;;5.13;82.62;96951.03;1795166;80;21072;-82
2021/11/14 07:14:46;;;;;;;76.53;53.05;;;;;;;5.13;82.53;96954.42;1795147;80;21025;-82
2021/11/14 07:17:12;;;;;;;94.30;56.42;;;;;;;5.13;82.60;96956.18;1795230;80;21118;-82
2021/11/14 07:19:37;;;;;;;94.25;58.35;;;;;;;5.13;82.75;96952.31;1795256;80;20964;-82
2021/11/14 07:22:04;;;;;;;95.38;57.50;;;;;;;5.18;82.75;96962.21;1791798;80;20977;-82
2021/11/14 07:24:29;;;;;;;93.05;59.73;;;;;;;5.19;82.73;96958.20;1715923;84;21122;-82
2021/11/14 07:26:55;;;;;;;93.85;59.20;;;;;;;5.24;82.84;96954.78;1745632;82;21373;-82
2021/11/14 07:29:21;;;;;;;95.83;60.00;;;;;;;5.31;82.89;96956.33;1699763;84;21427;-82
2021/11/14 07:31:46;;;;;;;95.15;60.55;;;;;;;5.33;82.73;96962.97;1742505;82;21097;-82
2021/11/14 07:34:12;;;;;;;103.78;65.22;;;;;;;5.30;82.47;96961.14;1745576;82;21115;-82
2021/11/14 07:36:38;;;;;;;113.92;72.90;;;;;;;5.27;82.63;96966.09;1745627;82;21383;-82
2021/11/14 07:39:06;;;;;;;99.25;66.30;;;;;;;5.28;82.66;96961.28;1728782;82;21110;-82
2021/11/14 07:41:32;;;;;;;95.90;57.88;;;;;;;5.34;82.65;96965.89;1745715;82;21414;-82
2021/11/14 07:43:58;;;;;;;86.72;57.65;;;;;;;5.37;82.57;96961.78;1745566;82;21035;-82
2021/11/14 07:46:24;;;;;;;96.10;60.10;;;;;;;5.38;82.01;96967.27;1745451;82;21318;-82
2021/11/14 07:48:50;;;;;;;75.03;47.43;;;;;;;5.37;81.85;96963.06;1745318;82;20968;-82
2021/11/14 07:51:15;;;;;;;75.12;48.63;;;;;;;5.37;81.92;96962.25;1745442;82;20987;-82
2021/11/14 07:53:41;;;;;;;75.70;49.10;;;;;;;5.37;81.99;96968.22;1745588;82;21046;-82
2021/11/14 07:56:07;;;;;;;78.42;49.08;;;;;;;5.38;81.83;96967.74;1745590;82;21371;-82
2021/11/14 07:58:32;;;;;;;85.22;53.08;;;;;;;5.38;81.84;96968.56;1745547;82;21019;-82
2021/11/14 08:00:58;;;;;;;81.82;54.48;;;;;;;5.39;81.70;96968.08;1738791;81;20996;-82
2021/11/14 08:03:24;;;;;;;81.30;52.38;;;;;;;5.43;82.02;96972.83;1739930;82;20940;-82
2021/11/14 08:05:50;;;;;;;81.67;52.85;;;;;;;5.48;82.15;96970.31;1745674;82;21023;-82
2021/11/14 08:08:16;;;;;;;83.72;54.42;;;;;;;5.47;81.91;96975.13;1745575;82;20995;-82
2021/11/14 08:10:42;;;;;;;93.27;57.23;;;;;;;5.46;82.00;96976.08;1745633;82;21342;-82
2021/11/14 08:13:08;;;;;;;90.72;55.98;;;;;;;5.39;81.70;96976.63;1745713;82;21003;-82
2021/11/14 08:15:36;;;;;;;76.72;48.10;;;;;;;5.38;81.42;96980.63;1745544;82;21446;-81
2021/11/14 08:18:02;;;;;;;77.85;49.85;;;;;;;5.37;81.19;96988.84;1745604;82;20940;-82
2021/11/14 08:20:28;;;;;;;83.40;56.55;;;;;;;5.33;81.04;96988.73;1745620;82;20980;-82
2021/11/14 08:22:59;;;;;;;83.42;54.63;;;;;;;5.29;81.17;96991.25;1762755;80;21003;-82
2021/11/14 08:25:21;;;;;;;80.77;55.20;;;;;;;5.30;81.60;96994.64;1797183;80;20999;-82
2021/11/14 08:27:47;;;;;;;94.60;62.27;;;;;;;5.31;81.96;96989.83;1798425;80;20975;-82
2021/11/14 08:30:14;;;;;;;91.08;56.45;;;;;;;5.33;81.75;96989.22;1798211;80;21472;-81
2021/11/14 08:32:40;;;;;;;78.15;50.95;;;;;;;5.32;81.79;96993.55;1798071;80;20986;-82
2021/11/14 08:35:07;;;;;;;70.90;46.92;;;;;;;5.38;81.97;96998.67;1798310;80;21333;-82
2021/11/14 08:37:33;;;;;;;77.35;49.80;;;;;;;5.46;81.86;97000.09;1798289;80;20991;-82
2021/11/14 08:40:02;;;;;;;72.70;47.75;;;;;;;5.54;81.80;97002.81;1798001;80;21058;-82
2021/11/14 08:42:28;;;;;;;75.57;46.18;;;;;;;5.58;81.71;97000.30;1798165;80;20991;-82
2021/11/14 08:44:54;;;;;;;69.53;44.03;;;;;;;5.61;81.67;97005.66;1798408;80;20975;-82
2021/11/14 08:47:20;;;;;;;95.75;55.45;;;;;;;5.64;81.64;97000.22;1798180;80;21358;-82
2021/11/14 08:49:45;;;;;;;78.87;49.03;;;;;;;5.64;81.31;97001.03;1798387;80;20998;-82
2021/11/14 08:52:11;;;;;;;59.13;35.98;;;;;;;5.64;81.25;97003.62;1798181;80;21010;-81
2021/11/14 08:54:37;;;;;;;60.45;40.48;;;;;;;5.69;80.84;97007.06;1798034;80;20999;-82
2021/11/14 08:57:04;;;;;;;62.70;41.02;;;;;;;5.57;80.13;97006.89;1798311;80;20951;-82
2021/11/14 08:59:31;;;;;;;56.73;35.68;;;;;;;5.55;80.65;97012.66;1798325;80;20967;-81
2021/11/14 09:02:00;;;;;;;48.90;33.10;;;;;;;5.59;81.17;97014.01;1795517;80;21331;-82
2021/11/14 09:04:26;;;;;;;48.13;32.60;;;;;;;5.63;80.94;97012.78;1773632;80;21370;-82
2021/11/14 09:06:54;;;;;;;43.50;28.75;;;;;;;5.62;80.58;97020.17;1761049;81;20963;-82
2021/11/14 09:09:20;;;;;;;43.42;28.27;;;;;;;5.62;80.82;97016.31;1760752;81;21425;-82
2021/11/14 09:11:46;;;;;;;41.45;27.55;;;;;;;5.56;80.55;97012.52;1761017;81;20983;-82
2021/11/14 09:14:12;;;;;;;41.58;28.40;;;;;;;5.61;80.99;97009.52;1760968;81;21026;-82
2021/11/14 09:16:38;;;;;;;42.75;29.85;;;;;;;5.66;80.75;97011.21;1760710;81;20979;-82
2021/11/14 09:19:05;;;;;;;48.42;29.98;;;;;;;5.69;80.93;97010.49;1760943;81;21019;-82
2021/11/14 09:21:31;;;;;;;40.33;26.90;;;;;;;5.73;81.11;97016.19;1760922;81;21007;-82
2021/11/14 09:23:56;;;;;;;43.90;29.02;;;;;;;5.76;80.86;97013.33;1758273;81;21082;-82
2021/11/14 09:26:22;;;;;;;48.78;30.85;;;;;;;5.72;80.54;97017.13;1757311;81;21086;-82
2021/11/14 09:28:48;;;;;;;48.68;31.73;;;;;;;5.66;80.15;97017.66;1729713;82;21318;-82
2021/11/14 09:31:14;;;;;;;46.68;32.13;;;;;;;5.63;80.60;97021.33;1757458;81;20921;-82
2021/11/14 09:33:40;;;;;;;40.88;29.30;;;;;;;5.65;80.35;97022.00;1757711;82;21028;-82
2021/11/14 09:36:07;;;;;;;48.02;33.25;;;;;;;5.64;80.27;97024.24;1757543;82;21055;-82
2021/11/14 09:38:34;;;;;;;47.85;32.83;;;;;;;5.66;80.29;97024.10;1757421;82;21044;-82
2021/11/14 09:41:02;;;;;;;46.28;30.50;;;;;;;5.69;80.46;97025.96;1757379;82;21028;-82
2021/11/14 09:43:28;;;;;;;44.98;29.52;;;;;;;5.75;80.30;97022.48;1729748;82;21046;-82
2021/11/14 09:45:54;;;;;;;47.25;31.30;;;;;;;5.77;80.11;97021.87;1757363;81;21003;-82
2021/11/14 09:48:22;;;;;;;47.98;30.10;;;;;;;5.69;79.55;97023.38;1757452;82;21050;-82
2021/11/14 09:50:51;;;;;;;44.85;29.65;;;;;;;5.65;79.96;97031.50;1757637;81;21074;-82
2021/11/14 09:53:16;;;;;;;44.42;30.75;;;;;;;5.73;80.44;97029.08;1757201;82;20984;-82
2021/11/14 09:55:42;;;;;;;37.78;26.55;;;;;;;5.84;80.36;97030.69;1757423;82;21019;-82
2021/11/14 09:58:08;;;;;;;38.75;24.02;;;;;;;5.88;80.24;97033.36;1757080;81;21088;-81
2021/11/14 10:00:36;;;;;;;46.63;28.12;;;;;;;5.71;79.55;97034.38;1757318;82;21015;-81
2021/11/14 10:03:02;;;;;;;34.08;22.73;;;;;;;5.57;79.47;97032.19;1757319;82;21055;-82
2021/11/14 10:05:27;;;;;;;42.23;27.60;;;;;;;5.52;79.35;97030.47;1754770;82;21130;-82
2021/11/14 10:08:05;;;;;;;39.03;27.42;;;;;;;5.48;79.79;97038.61;1757411;81;21020;-82
2021/11/14 10:10:33;;;;;;;45.17;30.23;;;;;;;5.50;79.68;97036.23;1757301;81;21005;-82
2021/11/14 10:13:13;;;;;;;41.90;29.10;;;;;;;5.48;80.06;97038.61;1757381;82;20987;-82
2021/11/14 10:15:42;;;;;;;48.25;29.95;;;;;;;5.49;80.02;97034.61;1757128;81;21060;-81
2021/11/14 10:18:08;;;;;;;37.10;25.15;;;;;;;5.51;80.10;97040.91;1757308;82;21106;-81
2021/11/14 10:20:36;;;;;;;36.17;24.95;;;;;;;5.55;80.38;97044.88;1728368;82;21421;-82
2021/11/14 10:23:12;;;;;;;35.70;24.52;;;;;;;5.58;80.33;97042.84;1757405;82;21103;-82
2021/11/14 10:25:39;;;;;;;35.70;24.75;;;;;;;5.61;80.09;97049.01;1757265;82;21090;-82
2021/11/14 10:28:05;;;;;;;37.90;24.95;;;;;;;5.68;80.10;97050.56;1757544;82;21043;-82
2021/11/14 10:30:34;;;;;;;38.53;23.70;;;;;;;5.76;80.01;97048.14;1757363;82;21034;-82
2021/11/14 10:33:05;;;;;;;36.83;25.88;;;;;;;5.80;79.78;97049.97;1757590;81;20993;-82
2021/11/14 10:35:30;;;;;;;39.50;25.90;;;;;;;5.82;79.61;97050.64;1755680;82;21524;-82
2021/11/14 10:38:03;;;;;;;37.28;26.10;;;;;;;5.86;79.67;97053.31;1775290;79;21034;-82
2021/11/14 10:40:32;;;;;;;34.50;23.77;;;;;;;5.87;79.68;97055.75;1794937;80;21014;-82
2021/11/14 10:43:00;;;;;;;40.88;26.07;;;;;;;5.87;79.41;97057.04;1795099;80;20962;-82
2021/11/14 10:45:28;;;;;;;37.70;25.55;;;;;;;5.85;79.34;97055.52;1795093;80;20994;-82
2021/11/14 10:48:03;;;;;;;41.92;27.15;;;;;;;5.86;79.52;97059.28;1795018;80;20978;-82
2021/11/14 10:50:36;;;;;;;44.25;28.62;;;;;;;5.88;79.70;97061.73;1794963;80;20971;-81
2021/11/14 10:53:07;;;;;;;39.20;27.98;;;;;;;5.87;79.43;97058.33;1795199;80;21091;-80
2021/11/14 10:55:46;;;;;;;48.13;30.43;;;;;;;5.85;79.21;97060.68;1795241;80;20987;-81
2021/11/14 10:58:13;;;;;;;38.73;26.97;;;;;;;5.85;79.59;97063.26;1795087;80;20986;-82
2021/11/14 11:00:40;;;;;;;35.25;25.45;;;;;;;5.86;79.71;97059.28;1795155;80;21063;-81
2021/11/14 11:03:07;;;;;;;44.05;31.42;;;;;;;5.90;79.41;97061.14;1766195;80;21035;-82
2021/11/14 11:05:33;;;;;;;38.90;26.55;;;;;;;5.91;79.38;97063.58;1795141;80;21086;-82
2021/11/14 11:08:06;;;;;;;41.88;29.52;;;;;;;5.90;79.13;97064.53;1795120;80;21035;-82
2021/11/14 11:10:40;;;;;;;45.17;31.60;;;;;;;5.85;79.20;97063.26;1795230;80;20959;-82
2021/11/14 11:13:13;;;;;;;48.68;34.58;;;;;;;5.84;79.56;97065.02;1795073;80;20976;-82
2021/11/14 11:15:49;;;;;;;55.10;34.95;;;;;;;5.85;79.80;97065.84;1766205;80;21444;-82
2021/11/14 11:18:18;;;;;;;53.70;35.75;;;;;;;5.83;79.62;97062.11;1795056;80;21362;-82
2021/11/14 11:20:45;;;;;;;50.17;35.13;;;;;;;5.88;79.86;97065.12;1795110;80;20971;-82
2021/11/14 11:23:17;;;;;;;55.43;36.85;;;;;;;5.89;79.39;97063.34;1794765;80;21029;-82
2021/11/14 11:25:53;;;;;;;46.60;31.05;;;;;;;5.85;79.30;97061.49;1794987;80;21453;-82
2021/11/14 11:28:29;;;;;;;62.60;42.53;;;;;;;5.74;79.05;97062.94;1794502;80;20983;-82